Terminal Aerodrome Forecast
Issued by NWS

Home | Current Version | Previous Version | Text Only | Print | Product List | Glossary On
Versions: 1 2 3 4 5 6 7 8 9 10 11 12 13 14 15 16 17 18 19 20 21 22 23 24 25 26
000
FTUS45 KRIW 200500
TAFPNA
TAF
KPNA 200527Z 2006/2106 31006KT P6SM VCSH SCT050 OVC080
     FM201000 30006KT P6SM SCT080 BKN110
     FM201600 VRB05KT P6SM FEW060 SCT110
     FM202200 29011KT P6SM VCTS SCT060CB BKN100
     FM210200 VRB06KT P6SM VCSH SCT080 BKN110
      AMD LTD TO CLD VIS AND WIND=

USA.gov is the U.S. government's official web portal to all federal, state and local government web resources and services.